sensor_id;sensor_type;location;lat;lon;timestamp;temperature;humidity
38020;DHT22;23829;51.350;17.286;2023-11-21T00:00:46;24.60;42.50
38020;DHT22;23829;51.350;17.286;2023-11-21T00:03:33;24.50;42.50
38020;DHT22;23829;51.350;17.286;2023-11-21T00:06:00;23.90;42.90
38020;DHT22;23829;51.350;17.286;2023-11-21T00:08:28;23.70;43.50
38020;DHT22;23829;51.350;17.286;2023-11-21T00:10:56;23.50;43.90
38020;DHT22;23829;51.350;17.286;2023-11-21T00:13:23;23.70;43.40
38020;DHT22;23829;51.350;17.286;2023-11-21T00:15:50;23.70;43.40
38020;DHT22;23829;51.350;17.286;2023-11-21T00:18:17;23.80;43.20
38020;DHT22;23829;51.350;17.286;2023-11-21T00:20:44;23.30;44.00
38020;DHT22;23829;51.350;17.286;2023-11-21T00:23:12;23.20;44.20
38020;DHT22;23829;51.350;17.286;2023-11-21T00:25:41;23.20;43.70
38020;DHT22;23829;51.350;17.286;2023-11-21T00:28:10;23.30;43.90
38020;DHT22;23829;51.350;17.286;2023-11-21T00:30:37;23.30;43.40
38020;DHT22;23829;51.350;17.286;2023-11-21T00:33:05;23.50;43.30
38020;DHT22;23829;51.350;17.286;2023-11-21T00:35:32;23.70;43.00
38020;DHT22;23829;51.350;17.286;2023-11-21T00:38:00;24.10;42.50
38020;DHT22;23829;51.350;17.286;2023-11-21T00:40:28;24.00;42.40
38020;DHT22;23829;51.350;17.286;2023-11-21T00:42:56;23.40;43.50
38020;DHT22;23829;51.350;17.286;2023-11-21T00:45:26;23.70;43.60
38020;DHT22;23829;51.350;17.286;2023-11-21T00:47:53;23.60;42.90
38020;DHT22;23829;51.350;17.286;2023-11-21T00:50:21;23.60;43.10
38020;DHT22;23829;51.350;17.286;2023-11-21T00:52:48;23.40;43.40
38020;DHT22;23829;51.350;17.286;2023-11-21T00:55:17;23.70;43.10
38020;DHT22;23829;51.350;17.286;2023-11-21T00:57:47;23.60;42.70
38020;DHT22;23829;51.350;17.286;2023-11-21T01:00:16;23.70;43.30
38020;DHT22;23829;51.350;17.286;2023-11-21T01:02:44;23.60;43.30
38020;DHT22;23829;51.350;17.286;2023-11-21T01:05:15;23.90;42.70
38020;DHT22;23829;51.350;17.286;2023-11-21T01:07:45;23.40;43.40
38020;DHT22;23829;51.350;17.286;2023-11-21T01:10:13;23.50;43.30
38020;DHT22;23829;51.350;17.286;2023-11-21T01:12:42;23.90;42.70
38020;DHT22;23829;51.350;17.286;2023-11-21T01:15:11;23.70;42.90
38020;DHT22;23829;51.350;17.286;2023-11-21T01:17:42;23.70;43.10
38020;DHT22;23829;51.350;17.286;2023-11-21T01:20:11;24.00;42.50
38020;DHT22;23829;51.350;17.286;2023-11-21T01:22:41;24.10;42.20
38020;DHT22;23829;51.350;17.286;2023-11-21T01:25:16;24.10;42.30
38020;DHT22;23829;51.350;17.286;2023-11-21T01:27:46;24.40;41.70
38020;DHT22;23829;51.350;17.286;2023-11-21T01:30:13;24.30;41.60
38020;DHT22;23829;51.350;17.286;2023-11-21T01:32:40;24.10;42.00
38020;DHT22;23829;51.350;17.286;2023-11-21T01:35:08;24.10;41.80
38020;DHT22;23829;51.350;17.286;2023-11-21T01:37:37;24.00;42.30
38020;DHT22;23829;51.350;17.286;2023-11-21T01:40:04;23.70;42.80
38020;DHT22;23829;51.350;17.286;2023-11-21T01:42:36;23.70;42.70
38020;DHT22;23829;51.350;17.286;2023-11-21T01:45:03;23.90;42.80
38020;DHT22;23829;51.350;17.286;2023-11-21T01:47:32;24.00;42.30
38020;DHT22;23829;51.350;17.286;2023-11-21T01:50:01;23.90;42.10
38020;DHT22;23829;51.350;17.286;2023-11-21T01:52:29;23.90;42.50
38020;DHT22;23829;51.350;17.286;2023-11-21T01:54:59;24.10;42.20
38020;DHT22;23829;51.350;17.286;2023-11-21T01:57:26;24.30;41.70
38020;DHT22;23829;51.350;17.286;2023-11-21T01:59:58;24.40;41.70
38020;DHT22;23829;51.350;17.286;2023-11-21T02:02:45;24.40;41.40
38020;DHT22;23829;51.350;17.286;2023-11-21T02:05:17;24.30;41.60
38020;DHT22;23829;51.350;17.286;2023-11-21T02:07:48;24.30;41.70
38020;DHT22;23829;51.350;17.286;2023-11-21T02:10:15;24.60;41.20
38020;DHT22;23829;51.350;17.286;2023-11-21T02:12:43;24.50;41.10
38020;DHT22;23829;51.350;17.286;2023-11-21T02:15:13;24.50;41.10
38020;DHT22;23829;51.350;17.286;2023-11-21T02:17:58;24.60;41.00
38020;DHT22;23829;51.350;17.286;2023-11-21T02:20:26;24.10;41.80
38020;DHT22;23829;51.350;17.286;2023-11-21T02:22:56;24.30;41.80
38020;DHT22;23829;51.350;17.286;2023-11-21T02:25:29;24.10;42.00
38020;DHT22;23829;51.350;17.286;2023-11-21T02:27:57;24.20;41.80
38020;DHT22;23829;51.350;17.286;2023-11-21T02:30:26;24.30;41.70
38020;DHT22;23829;51.350;17.286;2023-11-21T02:32:54;24.20;41.60
38020;DHT22;23829;51.350;17.286;2023-11-21T02:35:25;24.40;41.70
38020;DHT22;23829;51.350;17.286;2023-11-21T02:37:54;24.10;41.50
38020;DHT22;23829;51.350;17.286;2023-11-21T02:40:24;23.90;42.00
38020;DHT22;23829;51.350;17.286;2023-11-21T02:42:53;24.00;41.70
38020;DHT22;23829;51.350;17.286;2023-11-21T02:45:26;23.60;42.40
38020;DHT22;23829;51.350;17.286;2023-11-21T02:47:59;23.80;42.50
38020;DHT22;23829;51.350;17.286;2023-11-21T02:50:35;24.30;42.00
38020;DHT22;23829;51.350;17.286;2023-11-21T02:53:09;24.10;41.80
38020;DHT22;23829;51.350;17.286;2023-11-21T02:55:47;24.10;41.90
38020;DHT22;23829;51.350;17.286;2023-11-21T02:58:22;24.00;41.90
38020;DHT22;23829;51.350;17.286;2023-11-21T03:00:57;24.20;41.60
38020;DHT22;23829;51.350;17.286;2023-11-21T03:03:32;23.70;42.20
38020;DHT22;23829;51.350;17.286;2023-11-21T03:06:11;23.20;42.90
38020;DHT22;23829;51.350;17.286;2023-11-21T03:08:50;23.30;43.50
38020;DHT22;23829;51.350;17.286;2023-11-21T03:11:26;23.60;42.80
38020;DHT22;23829;51.350;17.286;2023-11-21T03:13:55;23.70;42.70
38020;DHT22;23829;51.350;17.286;2023-11-21T03:16:22;24.00;42.20
38020;DHT22;23829;51.350;17.286;2023-11-21T03:18:49;24.10;41.70
38020;DHT22;23829;51.350;17.286;2023-11-21T03:21:17;24.10;41.70
38020;DHT22;23829;51.350;17.286;2023-11-21T03:23:45;24.30;41.60
38020;DHT22;23829;51.350;17.286;2023-11-21T03:26:19;24.50;41.00
38020;DHT22;23829;51.350;17.286;2023-11-21T03:28:53;24.20;41.40
38020;DHT22;23829;51.350;17.286;2023-11-21T03:31:30;24.20;41.60
38020;DHT22;23829;51.350;17.286;2023-11-21T03:34:03;23.90;42.00
38020;DHT22;23829;51.350;17.286;2023-11-21T03:36:37;23.90;42.00
38020;DHT22;23829;51.350;17.286;2023-11-21T03:39:15;24.10;41.90
38020;DHT22;23829;51.350;17.286;2023-11-21T03:41:51;23.80;41.90
38020;DHT22;23829;51.350;17.286;2023-11-21T03:44:27;23.90;42.20
38020;DHT22;23829;51.350;17.286;2023-11-21T03:47:04;23.90;42.10
38020;DHT22;23829;51.350;17.286;2023-11-21T03:49:37;24.20;41.50
38020;DHT22;23829;51.350;17.286;2023-11-21T03:52:10;24.30;41.50
38020;DHT22;23829;51.350;17.286;2023-11-21T03:54:49;24.10;41.90
38020;DHT22;23829;51.350;17.286;2023-11-21T03:57:24;23.70;42.60
38020;DHT22;23829;51.350;17.286;2023-11-21T04:00:00;23.60;42.70
38020;DHT22;23829;51.350;17.286;2023-11-21T04:02:44;23.80;42.20
38020;DHT22;23829;51.350;17.286;2023-11-21T04:05:21;23.80;41.90
38020;DHT22;23829;51.350;17.286;2023-11-21T04:07:53;23.80;42.40
38020;DHT22;23829;51.350;17.286;2023-11-21T04:10:25;23.50;42.70
38020;DHT22;23829;51.350;17.286;2023-11-21T04:12:59;23.80;42.60
38020;DHT22;23829;51.350;17.286;2023-11-21T04:15:34;23.90;41.90
38020;DHT22;23829;51.350;17.286;2023-11-21T04:18:11;23.50;42.40
38020;DHT22;23829;51.350;17.286;2023-11-21T04:20:43;23.40;42.70
38020;DHT22;23829;51.350;17.286;2023-11-21T04:23:16;23.50;42.60
38020;DHT22;23829;51.350;17.286;2023-11-21T04:25:45;23.60;43.00
38020;DHT22;23829;51.350;17.286;2023-11-21T04:28:15;23.60;42.60
38020;DHT22;23829;51.350;17.286;2023-11-21T04:30:46;23.70;42.30
38020;DHT22;23829;51.350;17.286;2023-11-21T04:33:19;23.80;42.30
38020;DHT22;23829;51.350;17.286;2023-11-21T04:35:54;23.50;42.70
38020;DHT22;23829;51.350;17.286;2023-11-21T04:38:26;23.40;42.80
38020;DHT22;23829;51.350;17.286;2023-11-21T04:40:55;23.60;42.70
38020;DHT22;23829;51.350;17.286;2023-11-21T04:43:21;23.60;42.60
38020;DHT22;23829;51.350;17.286;2023-11-21T04:45:48;23.60;42.70
38020;DHT22;23829;51.350;17.286;2023-11-21T04:48:15;24.00;42.20
38020;DHT22;23829;51.350;17.286;2023-11-21T04:50:41;24.10;41.60
38020;DHT22;23829;51.350;17.286;2023-11-21T04:53:09;24.10;41.60
38020;DHT22;23829;51.350;17.286;2023-11-21T04:55:35;24.00;41.80
38020;DHT22;23829;51.350;17.286;2023-11-21T04:58:02;24.10;41.60
38020;DHT22;23829;51.350;17.286;2023-11-21T05:00:30;23.90;41.80
38020;DHT22;23829;51.350;17.286;2023-11-21T05:02:58;23.80;42.30
38020;DHT22;23829;51.350;17.286;2023-11-21T05:05:24;23.70;42.40
38020;DHT22;23829;51.350;17.286;2023-11-21T05:07:51;23.70;42.00
38020;DHT22;23829;51.350;17.286;2023-11-21T05:10:19;23.40;42.70
38020;DHT22;23829;51.350;17.286;2023-11-21T05:12:46;23.40;43.10
38020;DHT22;23829;51.350;17.286;2023-11-21T05:15:15;23.60;42.40
38020;DHT22;23829;51.350;17.286;2023-11-21T05:17:43;23.40;43.00
38020;DHT22;23829;51.350;17.286;2023-11-21T05:20:14;23.50;42.70
38020;DHT22;23829;51.350;17.286;2023-11-21T05:22:44;23.60;42.90
38020;DHT22;23829;51.350;17.286;2023-11-21T05:25:12;23.70;42.50
38020;DHT22;23829;51.350;17.286;2023-11-21T05:27:42;24.00;42.10
38020;DHT22;23829;51.350;17.286;2023-11-21T05:30:11;23.90;42.10
38020;DHT22;23829;51.350;17.286;2023-11-21T05:32:42;23.40;42.80
38020;DHT22;23829;51.350;17.286;2023-11-21T05:35:11;23.90;42.30
38020;DHT22;23829;51.350;17.286;2023-11-21T05:37:46;24.20;41.50
38020;DHT22;23829;51.350;17.286;2023-11-21T05:40:15;23.80;42.00
38020;DHT22;23829;51.350;17.286;2023-11-21T05:42:45;23.80;42.00
38020;DHT22;23829;51.350;17.286;2023-11-21T05:45:14;23.70;42.10
38020;DHT22;23829;51.350;17.286;2023-11-21T05:47:46;23.70;42.40
38020;DHT22;23829;51.350;17.286;2023-11-21T05:50:17;23.40;42.90
38020;DHT22;23829;51.350;17.286;2023-11-21T05:52:48;23.50;42.90
38020;DHT22;23829;51.350;17.286;2023-11-21T05:55:18;24.00;42.10
38020;DHT22;23829;51.350;17.286;2023-11-21T05:57:51;23.90;41.80
38020;DHT22;23829;51.350;17.286;2023-11-21T06:00:23;23.30;43.00
38020;DHT22;23829;51.350;17.286;2023-11-21T06:03:00;23.50;43.00
38020;DHT22;23829;51.350;17.286;2023-11-21T06:05:30;23.60;42.60
38020;DHT22;23829;51.350;17.286;2023-11-21T06:08:04;23.70;42.40
38020;DHT22;23829;51.350;17.286;2023-11-21T06:10:35;23.50;42.70
38020;DHT22;23829;51.350;17.286;2023-11-21T06:13:04;23.70;43.00
38020;DHT22;23829;51.350;17.286;2023-11-21T06:15:34;23.70;42.80
38020;DHT22;23829;51.350;17.286;2023-11-21T06:18:04;23.40;42.70
38020;DHT22;23829;51.350;17.286;2023-11-21T06:20:41;23.20;43.20
38020;DHT22;23829;51.350;17.286;2023-11-21T06:23:16;23.50;42.90
38020;DHT22;23829;51.350;17.286;2023-11-21T06:25:47;23.60;42.90
38020;DHT22;23829;51.350;17.286;2023-11-21T06:28:21;23.60;42.70
38020;DHT22;23829;51.350;17.286;2023-11-21T06:30:50;22.90;43.30
38020;DHT22;23829;51.350;17.286;2023-11-21T06:33:26;22.60;44.20
38020;DHT22;23829;51.350;17.286;2023-11-21T06:35:57;22.70;44.40
38020;DHT22;23829;51.350;17.286;2023-11-21T06:38:33;22.90;44.30
38020;DHT22;23829;51.350;17.286;2023-11-21T06:41:06;22.70;44.50
38020;DHT22;23829;51.350;17.286;2023-11-21T06:43:39;22.70;44.70
38020;DHT22;23829;51.350;17.286;2023-11-21T06:46:16;23.20;44.10
38020;DHT22;23829;51.350;17.286;2023-11-21T06:48:53;23.40;43.60
38020;DHT22;23829;51.350;17.286;2023-11-21T06:51:21;23.70;42.90
38020;DHT22;23829;51.350;17.286;2023-11-21T06:53:48;23.20;43.40
38020;DHT22;23829;51.350;17.286;2023-11-21T06:56:18;22.90;44.30
38020;DHT22;23829;51.350;17.286;2023-11-21T06:58:46;22.90;44.40
38020;DHT22;23829;51.350;17.286;2023-11-21T07:01:21;22.70;44.70
38020;DHT22;23829;51.350;17.286;2023-11-21T07:03:57;22.80;44.40
38020;DHT22;23829;51.350;17.286;2023-11-21T07:06:30;22.20;46.00
38020;DHT22;23829;51.350;17.286;2023-11-21T07:09:04;22.50;45.00
38020;DHT22;23829;51.350;17.286;2023-11-21T07:11:37;22.50;45.20
38020;DHT22;23829;51.350;17.286;2023-11-21T07:14:11;22.30;45.30
38020;DHT22;23829;51.350;17.286;2023-11-21T07:16:48;22.60;45.60
38020;DHT22;23829;51.350;17.286;2023-11-21T07:19:27;22.30;45.10
38020;DHT22;23829;51.350;17.286;2023-11-21T07:21:53;22.50;45.30
38020;DHT22;23829;51.350;17.286;2023-11-21T07:24:20;22.30;45.40
38020;DHT22;23829;51.350;17.286;2023-11-21T07:26:47;22.30;45.60
38020;DHT22;23829;51.350;17.286;2023-11-21T07:29:16;22.20;45.80
38020;DHT22;23829;51.350;17.286;2023-11-21T07:31:45;22.70;45.10
38020;DHT22;23829;51.350;17.286;2023-11-21T07:34:17;23.00;44.10
38020;DHT22;23829;51.350;17.286;2023-11-21T07:36:47;22.90;44.40
38020;DHT22;23829;51.350;17.286;2023-11-21T07:39:19;22.80;44.50
38020;DHT22;23829;51.350;17.286;2023-11-21T07:41:48;22.40;44.80
38020;DHT22;23829;51.350;17.286;2023-11-21T07:44:16;22.10;45.90
38020;DHT22;23829;51.350;17.286;2023-11-21T07:46:47;22.50;44.90
38020;DHT22;23829;51.350;17.286;2023-11-21T07:49:13;21.90;45.70
38020;DHT22;23829;51.350;17.286;2023-11-21T07:51:43;22.00;45.70
38020;DHT22;23829;51.350;17.286;2023-11-21T07:54:10;22.40;45.30
38020;DHT22;23829;51.350;17.286;2023-11-21T07:56:36;22.70;44.60
38020;DHT22;23829;51.350;17.286;2023-11-21T07:59:02;23.20;43.30
38020;DHT22;23829;51.350;17.286;2023-11-21T08:01:29;23.00;43.40
38020;DHT22;23829;51.350;17.286;2023-11-21T08:03:55;22.70;43.80
38020;DHT22;23829;51.350;17.286;2023-11-21T08:06:25;22.80;43.50
38020;DHT22;23829;51.350;17.286;2023-11-21T08:08:52;22.10;44.20
38020;DHT22;23829;51.350;17.286;2023-11-21T08:11:18;22.20;44.00
38020;DHT22;23829;51.350;17.286;2023-11-21T08:13:45;22.10;44.00
38020;DHT22;23829;51.350;17.286;2023-11-21T08:16:12;21.50;44.70
38020;DHT22;23829;51.350;17.286;2023-11-21T08:18:39;21.10;45.20
38020;DHT22;23829;51.350;17.286;2023-11-21T08:21:06;21.20;44.70
38020;DHT22;23829;51.350;17.286;2023-11-21T08:23:32;21.40;45.00
38020;DHT22;23829;51.350;17.286;2023-11-21T08:26:00;21.00;45.20
38020;DHT22;23829;51.350;17.286;2023-11-21T08:28:28;21.10;45.30
38020;DHT22;23829;51.350;17.286;2023-11-21T08:30:54;21.10;45.00
38020;DHT22;23829;51.350;17.286;2023-11-21T08:33:21;21.10;44.40
38020;DHT22;23829;51.350;17.286;2023-11-21T08:35:48;20.90;44.60
38020;DHT22;23829;51.350;17.286;2023-11-21T08:38:15;21.00;44.50
38020;DHT22;23829;51.350;17.286;2023-11-21T08:40:41;20.70;45.00
38020;DHT22;23829;51.350;17.286;2023-11-21T08:43:07;20.50;45.30
38020;DHT22;23829;51.350;17.286;2023-11-21T08:45:34;20.50;45.50
38020;DHT22;23829;51.350;17.286;2023-11-21T08:48:01;21.00;44.50
38020;DHT22;23829;51.350;17.286;2023-11-21T08:50:28;20.60;44.40
38020;DHT22;23829;51.350;17.286;2023-11-21T08:52:55;20.10;45.00
38020;DHT22;23829;51.350;17.286;2023-11-21T08:55:21;20.00;45.70
38020;DHT22;23829;51.350;17.286;2023-11-21T08:57:48;19.80;45.80
38020;DHT22;23829;51.350;17.286;2023-11-21T09:00:15;19.90;45.50
38020;DHT22;23829;51.350;17.286;2023-11-21T09:02:43;20.00;46.20
38020;DHT22;23829;51.350;17.286;2023-11-21T09:05:10;19.60;45.80
38020;DHT22;23829;51.350;17.286;2023-11-21T09:07:39;20.00;45.20
38020;DHT22;23829;51.350;17.286;2023-11-21T09:10:06;19.70;45.60
38020;DHT22;23829;51.350;17.286;2023-11-21T09:12:34;20.00;44.90
38020;DHT22;23829;51.350;17.286;2023-11-21T09:15:07;20.10;44.80
38020;DHT22;23829;51.350;17.286;2023-11-21T09:17:35;19.70;45.10
38020;DHT22;23829;51.350;17.286;2023-11-21T09:20:02;19.60;45.40
38020;DHT22;23829;51.350;17.286;2023-11-21T09:22:31;19.90;44.90
38020;DHT22;23829;51.350;17.286;2023-11-21T09:24:58;20.40;44.40
38020;DHT22;23829;51.350;17.286;2023-11-21T09:27:24;20.00;44.70
38020;DHT22;23829;51.350;17.286;2023-11-21T09:29:52;19.80;44.30
38020;DHT22;23829;51.350;17.286;2023-11-21T09:32:21;19.90;44.90
38020;DHT22;23829;51.350;17.286;2023-11-21T09:34:50;19.80;44.30
38020;DHT22;23829;51.350;17.286;2023-11-21T09:37:17;19.50;44.60
38020;DHT22;23829;51.350;17.286;2023-11-21T09:39:43;19.70;44.50
38020;DHT22;23829;51.350;17.286;2023-11-21T09:42:13;19.20;44.50
38020;DHT22;23829;51.350;17.286;2023-11-21T09:44:58;19.80;43.90
38020;DHT22;23829;51.350;17.286;2023-11-21T09:47:29;18.90;45.00
38020;DHT22;23829;51.350;17.286;2023-11-21T09:49:56;18.80;46.00
38020;DHT22;23829;51.350;17.286;2023-11-21T09:52:28;18.70;46.10
38020;DHT22;23829;51.350;17.286;2023-11-21T09:54:55;18.80;45.90
38020;DHT22;23829;51.350;17.286;2023-11-21T09:57:25;19.10;46.00
38020;DHT22;23829;51.350;17.286;2023-11-21T09:59:54;19.50;44.70
38020;DHT22;23829;51.350;17.286;2023-11-21T10:02:27;19.50;44.60
38020;DHT22;23829;51.350;17.286;2023-11-21T10:05:00;19.40;43.30
38020;DHT22;23829;51.350;17.286;2023-11-21T10:07:26;19.30;44.40
38020;DHT22;23829;51.350;17.286;2023-11-21T10:09:55;19.50;43.80
38020;DHT22;23829;51.350;17.286;2023-11-21T10:12:22;19.40;43.60
38020;DHT22;23829;51.350;17.286;2023-11-21T10:14:54;19.10;43.60
38020;DHT22;23829;51.350;17.286;2023-11-21T10:17:24;19.20;43.90
38020;DHT22;23829;51.350;17.286;2023-11-21T10:19:55;19.20;43.70
38020;DHT22;23829;51.350;17.286;2023-11-21T10:22:22;18.50;45.20
38020;DHT22;23829;51.350;17.286;2023-11-21T10:24:48;18.60;45.00
38020;DHT22;23829;51.350;17.286;2023-11-21T10:27:14;19.00;44.70
38020;DHT22;23829;51.350;17.286;2023-11-21T10:29:41;19.80;43.40
38020;DHT22;23829;51.350;17.286;2023-11-21T10:32:08;18.90;43.90
38020;DHT22;23829;51.350;17.286;2023-11-21T10:34:34;18.70;44.30
38020;DHT22;23829;51.350;17.286;2023-11-21T10:37:11;18.30;44.70
38020;DHT22;23829;51.350;17.286;2023-11-21T10:39:39;19.00;44.60
38020;DHT22;23829;51.350;17.286;2023-11-21T10:42:08;18.50;44.20
38020;DHT22;23829;51.350;17.286;2023-11-21T10:44:36;18.40;44.50
38020;DHT22;23829;51.350;17.286;2023-11-21T10:47:03;18.50;45.10
38020;DHT22;23829;51.350;17.286;2023-11-21T10:49:31;18.30;45.10
38020;DHT22;23829;51.350;17.286;2023-11-21T10:51:57;18.50;44.80
38020;DHT22;23829;51.350;17.286;2023-11-21T10:54:25;18.50;44.80
38020;DHT22;23829;51.350;17.286;2023-11-21T10:56:59;18.30;44.80
38020;DHT22;23829;51.350;17.286;2023-11-21T10:59:30;18.10;45.30
38020;DHT22;23829;51.350;17.286;2023-11-21T11:01:58;18.00;45.50
38020;DHT22;23829;51.350;17.286;2023-11-21T11:04:27;18.40;45.20
38020;DHT22;23829;51.350;17.286;2023-11-21T11:06:58;18.90;43.50
38020;DHT22;23829;51.350;17.286;2023-11-21T11:09:28;19.10;43.20
38020;DHT22;23829;51.350;17.286;2023-11-21T11:11:56;18.70;43.50
38020;DHT22;23829;51.350;17.286;2023-11-21T11:14:23;19.10;43.10
38020;DHT22;23829;51.350;17.286;2023-11-21T11:16:53;19.00;42.90
38020;DHT22;23829;51.350;17.286;2023-11-21T11:19:21;18.70;43.60
38020;DHT22;23829;51.350;17.286;2023-11-21T11:25:25;17.80;45.00
38020;DHT22;23829;51.350;17.286;2023-11-21T11:28:17;18.10;44.40
38020;DHT22;23829;51.350;17.286;2023-11-21T11:33:56;17.40;45.50
38020;DHT22;23829;51.350;17.286;2023-11-21T11:38:53;19.00;42.40
38020;DHT22;23829;51.350;17.286;2023-11-21T11:41:26;18.70;42.80
38020;DHT22;23829;51.350;17.286;2023-11-21T11:43:54;19.20;41.00
38020;DHT22;23829;51.350;17.286;2023-11-21T11:46:21;18.70;43.00
38020;DHT22;23829;51.350;17.286;2023-11-21T11:49:06;18.40;42.80
38020;DHT22;23829;51.350;17.286;2023-11-21T11:51:34;17.80;43.90
38020;DHT22;23829;51.350;17.286;2023-11-21T11:54:02;18.00;44.10
38020;DHT22;23829;51.350;17.286;2023-11-21T11:56:30;18.30;44.10
38020;DHT22;23829;51.350;17.286;2023-11-21T11:58:59;18.10;43.50
38020;DHT22;23829;51.350;17.286;2023-11-21T12:01:26;17.90;44.00
38020;DHT22;23829;51.350;17.286;2023-11-21T12:07:01;17.80;43.00
38020;DHT22;23829;51.350;17.286;2023-11-21T12:09:30;17.70;44.20
38020;DHT22;23829;51.350;17.286;2023-11-21T12:11:57;17.70;43.80
38020;DHT22;23829;51.350;17.286;2023-11-21T12:14:24;17.40;44.20
38020;DHT22;23829;51.350;17.286;2023-11-21T12:16:51;17.20;44.20
38020;DHT22;23829;51.350;17.286;2023-11-21T12:19:18;17.70;43.60
38020;DHT22;23829;51.350;17.286;2023-11-21T12:21:44;17.60;43.70
38020;DHT22;23829;51.350;17.286;2023-11-21T12:24:11;17.40;43.90
38020;DHT22;23829;51.350;17.286;2023-11-21T12:26:40;17.60;44.20
38020;DHT22;23829;51.350;17.286;2023-11-21T12:29:07;18.10;42.70
38020;DHT22;23829;51.350;17.286;2023-11-21T12:31:37;18.10;43.00
38020;DHT22;23829;51.350;17.286;2023-11-21T12:34:04;17.70;43.20
38020;DHT22;23829;51.350;17.286;2023-11-21T12:36:31;17.20;44.00
38020;DHT22;23829;51.350;17.286;2023-11-21T12:38:57;16.90;45.00
38020;DHT22;23829;51.350;17.286;2023-11-21T12:41:23;16.70;44.90
38020;DHT22;23829;51.350;17.286;2023-11-21T12:43:50;16.50;46.20
38020;DHT22;23829;51.350;17.286;2023-11-21T12:46:16;16.90;45.20
38020;DHT22;23829;51.350;17.286;2023-11-21T12:48:44;17.60;43.70
38020;DHT22;23829;51.350;17.286;2023-11-21T12:51:12;16.80;44.50
38020;DHT22;23829;51.350;17.286;2023-11-21T12:53:41;16.90;44.80
38020;DHT22;23829;51.350;17.286;2023-11-21T12:56:10;16.50;45.00
38020;DHT22;23829;51.350;17.286;2023-11-21T12:58:37;17.00;45.00
38020;DHT22;23829;51.350;17.286;2023-11-21T13:01:06;17.00;44.50
38020;DHT22;23829;51.350;17.286;2023-11-21T13:03:38;16.70;44.70
38020;DHT22;23829;51.350;17.286;2023-11-21T13:06:07;17.40;43.90
38020;DHT22;23829;51.350;17.286;2023-11-21T13:08:36;17.00;43.60
38020;DHT22;23829;51.350;17.286;2023-11-21T13:11:05;17.20;43.50
38020;DHT22;23829;51.350;17.286;2023-11-21T13:13:32;17.50;43.40
38020;DHT22;23829;51.350;17.286;2023-11-21T13:16:00;17.30;42.90
38020;DHT22;23829;51.350;17.286;2023-11-21T13:18:28;16.90;44.00
38020;DHT22;23829;51.350;17.286;2023-11-21T13:20:56;16.90;44.20
38020;DHT22;23829;51.350;17.286;2023-11-21T13:23:24;17.40;43.90
38020;DHT22;23829;51.350;17.286;2023-11-21T13:25:51;17.20;43.30
38020;DHT22;23829;51.350;17.286;2023-11-21T13:28:18;16.80;44.10
38020;DHT22;23829;51.350;17.286;2023-11-21T13:30:48;17.00;43.90
38020;DHT22;23829;51.350;17.286;2023-11-21T13:33:14;17.70;42.50
38020;DHT22;23829;51.350;17.286;2023-11-21T13:35:48;17.70;42.70
38020;DHT22;23829;51.350;17.286;2023-11-21T13:38:17;17.70;42.00
38020;DHT22;23829;51.350;17.286;2023-11-21T13:40:49;17.80;41.80
38020;DHT22;23829;51.350;17.286;2023-11-21T13:43:22;17.80;42.00
38020;DHT22;23829;51.350;17.286;2023-11-21T13:45:52;17.90;42.10
38020;DHT22;23829;51.350;17.286;2023-11-21T13:48:24;17.40;42.20
38020;DHT22;23829;51.350;17.286;2023-11-21T13:51:09;17.30;42.30
38020;DHT22;23829;51.350;17.286;2023-11-21T13:53:47;17.20;42.70
38020;DHT22;23829;51.350;17.286;2023-11-21T13:56:16;16.30;43.50
38020;DHT22;23829;51.350;17.286;2023-11-21T13:58:51;16.00;44.50
38020;DHT22;23829;51.350;17.286;2023-11-21T14:01:22;16.40;44.40
38020;DHT22;23829;51.350;17.286;2023-11-21T14:03:58;16.60;43.90
38020;DHT22;23829;51.350;17.286;2023-11-21T14:06:49;16.70;43.60
38020;DHT22;23829;51.350;17.286;2023-11-21T14:09:19;16.90;43.20
38020;DHT22;23829;51.350;17.286;2023-11-21T14:11:58;16.70;44.00
38020;DHT22;23829;51.350;17.286;2023-11-21T14:14:27;16.40;43.70
38020;DHT22;23829;51.350;17.286;2023-11-21T14:16:54;16.60;43.90
38020;DHT22;23829;51.350;17.286;2023-11-21T14:19:25;16.10;44.50
38020;DHT22;23829;51.350;17.286;2023-11-21T14:21:57;16.90;43.00
38020;DHT22;23829;51.350;17.286;2023-11-21T14:24:24;15.70;44.20
38020;DHT22;23829;51.350;17.286;2023-11-21T14:26:51;15.90;45.40
38020;DHT22;23829;51.350;17.286;2023-11-21T14:29:19;15.40;45.40
38020;DHT22;23829;51.350;17.286;2023-11-21T14:31:47;15.80;44.70
38020;DHT22;23829;51.350;17.286;2023-11-21T14:34:13;15.10;45.70
38020;DHT22;23829;51.350;17.286;2023-11-21T14:36:41;14.70;46.00
38020;DHT22;23829;51.350;17.286;2023-11-21T14:39:09;15.50;46.30
38020;DHT22;23829;51.350;17.286;2023-11-21T14:41:46;15.30;46.20
38020;DHT22;23829;51.350;17.286;2023-11-21T14:44:12;15.30;45.10
38020;DHT22;23829;51.350;17.286;2023-11-21T14:46:40;15.60;45.70
38020;DHT22;23829;51.350;17.286;2023-11-21T14:49:10;16.10;45.20
38020;DHT22;23829;51.350;17.286;2023-11-21T14:51:52;15.80;44.20
38020;DHT22;23829;51.350;17.286;2023-11-21T14:54:21;15.50;44.80
38020;DHT22;23829;51.350;17.286;2023-11-21T14:57:06;16.00;44.70
38020;DHT22;23829;51.350;17.286;2023-11-21T14:59:48;16.50;43.30
38020;DHT22;23829;51.350;17.286;2023-11-21T15:02:19;16.40;43.30
38020;DHT22;23829;51.350;17.286;2023-11-21T15:05:08;16.30;43.40
38020;DHT22;23829;51.350;17.286;2023-11-21T15:07:41;17.00;42.80
38020;DHT22;23829;51.350;17.286;2023-11-21T15:10:08;16.90;42.10
38020;DHT22;23829;51.350;17.286;2023-11-21T15:12:41;16.90;41.90
38020;DHT22;23829;51.350;17.286;2023-11-21T15:15:09;17.00;41.40
38020;DHT22;23829;51.350;17.286;2023-11-21T15:17:37;17.30;41.60
38020;DHT22;23829;51.350;17.286;2023-11-21T15:20:05;17.40;41.20
38020;DHT22;23829;51.350;17.286;2023-11-21T15:22:33;15.90;42.60
38020;DHT22;23829;51.350;17.286;2023-11-21T15:24:59;16.20;43.00
38020;DHT22;23829;51.350;17.286;2023-11-21T15:27:30;16.40;42.70
38020;DHT22;23829;51.350;17.286;2023-11-21T15:29:56;15.70;42.90
38020;DHT22;23829;51.350;17.286;2023-11-21T15:32:23;16.30;42.80
38020;DHT22;23829;51.350;17.286;2023-11-21T15:34:50;16.20;42.10
38020;DHT22;23829;51.350;17.286;2023-11-21T15:37:17;15.60;43.10
38020;DHT22;23829;51.350;17.286;2023-11-21T15:39:43;15.60;43.90
38020;DHT22;23829;51.350;17.286;2023-11-21T15:42:11;16.40;42.70
38020;DHT22;23829;51.350;17.286;2023-11-21T15:44:38;16.90;41.30